TFFR/PTP METAR and TAF weather

Enter ICAO airport designator
Station Type Date Time Source
TFFR METAR 2022/11/26 08:00 UTC NOAA

TFFR 260800Z AUTO VRB02KT 9999 FEW062 21/20 Q1013


Station Type Date Time Source
TFFR Decoded METAR 2022/11/26 08:00 UTC NOAA

Le Raizet, Guadeloupe, Guadeloupe (TFFR) 16-16N 061-31W 11M
Nov 26, 2022 - 03:00 AM EST / 2022.11.26 0800 UTC
Wind: Variable at 2 MPH (2 KT):0
Visibility: greater than 7 mile(s):0
Sky conditions: mostly clear
Temperature: 69 F (21 C)
Dew Point: 68 F (20 C)
Relative Humidity: 94%
Pressure (altimeter): 29.91 in. Hg (1013 hPa)
ob: TFFR 260800Z AUTO VRB02KT 9999 FEW062 21/20 Q1013
cycle: 8

Station Type Date Time Source
TFFR TAF 2022/11/25 22:48 UTC NOAA

TAF TFFR 252246Z 2522/2618 CNL

Example: see airport list